Ewaterfrd, Pennsylvania
Current Conditions -  °F | °C
As of 5:53 PM on Wednesday 22 Oct 2014 (Local Time) from KAOO Reporting Station
Overcast Overcast  
Wind Chill: 45°   Ceiling: 2400
Heat Index: 49°   Visibility: 10mi
Dew Point: 42°   Wind: 8mph
Humidity: 77%   Direction: 330°NNW
Pressure: 30.06"   Gusts: NA
Location:  40.3617°N, 77.6745°W
Report Text: KAOO 222153Z AUTO 33007KT 10SM BKN024 OVC030 09/06 A3006 RMK AO2 SLP185 T00940056
Loading
Personal Weather Stations






























Interactive Weather Map New forecast layout! Learn more

10-Day Weather Forecast

Advertisements
Track Severe Weather on mobile